sensor_id;sensor_type;location;lat;lon;timestamp;pressure;altitude;pressure_sealevel;temperature;humidity
39075;BME280;24826;52.070;20.970;2023-04-10T00:00:28;61458.31;;;-147.04;100.00
39075;BME280;24826;52.070;20.970;2023-04-10T00:03:22;61388.72;;;-147.04;100.00
39075;BME280;24826;52.070;20.970;2023-04-10T00:06:07;61372.81;;;-147.04;100.00
39075;BME280;24826;52.070;20.970;2023-04-10T00:08:51;61402.63;;;-147.04;100.00
39075;BME280;24826;52.070;20.970;2023-04-10T00:11:35;61531.88;;;-147.04;100.00
39075;BME280;24826;52.070;20.970;2023-04-10T00:14:20;61396.66;;;-147.04;100.00
39075;BME280;24826;52.070;20.970;2023-04-10T00:17:06;61372.81;;;-147.04;100.00
39075;BME280;24826;52.070;20.970;2023-04-10T00:19:51;61398.66;;;-147.04;100.00
39075;BME280;24826;52.070;20.970;2023-04-10T00:22:35;61384.75;;;-147.04;100.00
39075;BME280;24826;52.070;20.970;2023-04-10T00:25:20;61368.84;;;-147.04;100.00
39075;BME280;24826;52.070;20.970;2023-04-10T00:28:06;61400.66;;;-147.04;100.00
39075;BME280;24826;52.070;20.970;2023-04-10T00:30:51;61382.75;;;-147.04;100.00
39075;BME280;24826;52.070;20.970;2023-04-10T00:33:34;61424.50;;;-147.04;100.00
39075;BME280;24826;52.070;20.970;2023-04-10T00:36:19;61396.66;;;-147.04;100.00
39075;BME280;24826;52.070;20.970;2023-04-10T00:39:04;61372.81;;;-147.04;100.00
39075;BME280;24826;52.070;20.970;2023-04-10T00:41:48;61378.78;;;-147.04;100.00
39075;BME280;24826;52.070;20.970;2023-04-10T00:44:33;61400.66;;;-147.04;100.00
39075;BME280;24826;52.070;20.970;2023-04-10T00:47:20;61380.75;;;-147.04;100.00
39075;BME280;24826;52.070;20.970;2023-04-10T00:50:05;61388.72;;;-147.04;100.00
39075;BME280;24826;52.070;20.970;2023-04-10T00:52:50;61378.78;;;-147.04;100.00
39075;BME280;24826;52.070;20.970;2023-04-10T00:55:34;61352.94;;;-147.04;100.00
39075;BME280;24826;52.070;20.970;2023-04-10T00:58:19;61360.88;;;-147.04;100.00
39075;BME280;24826;52.070;20.970;2023-04-10T01:01:03;61404.63;;;-147.04;100.00
39075;BME280;24826;52.070;20.970;2023-04-10T01:03:48;61364.84;;;-147.04;100.00
39075;BME280;24826;52.070;20.970;2023-04-10T01:13:38;61360.88;;;-147.04;100.00
39075;BME280;24826;52.070;20.970;2023-04-10T01:16:35;61364.84;;;-147.04;100.00
39075;BME280;24826;52.070;20.970;2023-04-10T01:19:40;61390.72;;;-147.04;100.00
39075;BME280;24826;52.070;20.970;2023-04-10T01:31:28;61368.84;;;-147.04;100.00
39075;BME280;24826;52.070;20.970;2023-04-10T01:34:19;61364.84;;;-147.04;100.00
39075;BME280;24826;52.070;20.970;2023-04-10T01:37:07;61378.78;;;-147.04;100.00
39075;BME280;24826;52.070;20.970;2023-04-10T01:40:08;61344.97;;;-147.04;100.00
39075;BME280;24826;52.070;20.970;2023-04-10T01:42:55;61392.69;;;-147.04;100.00
39075;BME280;24826;52.070;20.970;2023-04-10T01:45:41;61382.75;;;-147.04;100.00
39075;BME280;24826;52.070;20.970;2023-04-10T01:48:26;61416.56;;;-147.04;100.00
39075;BME280;24826;52.070;20.970;2023-04-10T01:51:12;61376.78;;;-147.04;100.00
39075;BME280;24826;52.070;20.970;2023-04-10T01:53:57;61372.81;;;-147.04;100.00
39075;BME280;24826;52.070;20.970;2023-04-10T01:56:42;61404.63;;;-147.04;100.00
39075;BME280;24826;52.070;20.970;2023-04-10T01:59:27;61384.75;;;-147.04;100.00
39075;BME280;24826;52.070;20.970;2023-04-10T02:02:11;61356.91;;;-147.04;100.00
39075;BME280;24826;52.070;20.970;2023-04-10T02:04:55;61384.75;;;-147.04;100.00
39075;BME280;24826;52.070;20.970;2023-04-10T02:10:52;61339.00;;;-147.04;100.00
39075;BME280;24826;52.070;20.970;2023-04-10T02:13:38;61348.94;;;-147.04;100.00
39075;BME280;24826;52.070;20.970;2023-04-10T02:16:23;61354.91;;;-147.04;100.00
39075;BME280;24826;52.070;20.970;2023-04-10T02:19:10;61380.75;;;-147.04;100.00
39075;BME280;24826;52.070;20.970;2023-04-10T02:21:57;61368.84;;;-147.04;100.00
39075;BME280;24826;52.070;20.970;2023-04-10T02:24:42;61380.75;;;-147.04;100.00
39075;BME280;24826;52.070;20.970;2023-04-10T02:27:31;61325.09;;;-147.04;100.00
39075;BME280;24826;52.070;20.970;2023-04-10T02:30:16;61406.63;;;-147.04;100.00
39075;BME280;24826;52.070;20.970;2023-04-10T02:33:00;61380.75;;;-147.04;100.00
39075;BME280;24826;52.070;20.970;2023-04-10T02:35:45;61352.94;;;-147.04;100.00
39075;BME280;24826;52.070;20.970;2023-04-10T02:38:29;61388.72;;;-147.04;100.00
39075;BME280;24826;52.070;20.970;2023-04-10T02:41:14;61350.94;;;-147.04;100.00
39075;BME280;24826;52.070;20.970;2023-04-10T02:43:58;61386.72;;;-147.04;100.00
39075;BME280;24826;52.070;20.970;2023-04-10T02:46:43;61362.88;;;-147.04;100.00
39075;BME280;24826;52.070;20.970;2023-04-10T02:49:27;61362.88;;;-147.04;100.00
39075;BME280;24826;52.070;20.970;2023-04-10T02:52:13;61372.81;;;-147.04;100.00
39075;BME280;24826;52.070;20.970;2023-04-10T02:54:57;61404.63;;;-147.04;100.00
39075;BME280;24826;52.070;20.970;2023-04-10T02:57:42;61408.59;;;-147.04;100.00
39075;BME280;24826;52.070;20.970;2023-04-10T03:00:26;61348.94;;;-147.04;100.00
39075;BME280;24826;52.070;20.970;2023-04-10T03:03:11;61380.75;;;-147.04;100.00
39075;BME280;24826;52.070;20.970;2023-04-10T03:05:55;61370.81;;;-147.04;100.00
39075;BME280;24826;52.070;20.970;2023-04-10T03:08:39;61436.44;;;-147.04;100.00
39075;BME280;24826;52.070;20.970;2023-04-10T03:11:24;61388.72;;;-147.04;100.00
39075;BME280;24826;52.070;20.970;2023-04-10T03:14:09;61398.66;;;-147.04;100.00
39075;BME280;24826;52.070;20.970;2023-04-10T03:16:53;61376.78;;;-147.04;100.00
39075;BME280;24826;52.070;20.970;2023-04-10T03:19:38;61416.56;;;-147.04;100.00
39075;BME280;24826;52.070;20.970;2023-04-10T03:22:23;61541.81;;;-147.04;100.00
39075;BME280;24826;52.070;20.970;2023-04-10T03:25:08;61418.53;;;-147.04;100.00
39075;BME280;24826;52.070;20.970;2023-04-10T03:27:52;61388.72;;;-147.04;100.00
39075;BME280;24826;52.070;20.970;2023-04-10T03:30:36;61344.97;;;-147.04;100.00
39075;BME280;24826;52.070;20.970;2023-04-10T03:33:21;61384.75;;;-147.04;100.00
39075;BME280;24826;52.070;20.970;2023-04-10T03:36:05;61400.66;;;-147.04;100.00
39075;BME280;24826;52.070;20.970;2023-04-10T03:38:50;61356.91;;;-147.04;100.00
39075;BME280;24826;52.070;20.970;2023-04-10T03:41:35;61342.97;;;-147.04;100.00
39075;BME280;24826;52.070;20.970;2023-04-10T03:44:20;61337.00;;;-147.04;100.00
39075;BME280;24826;52.070;20.970;2023-04-10T03:47:06;61440.41;;;-147.04;100.00
39075;BME280;24826;52.070;20.970;2023-04-10T03:49:50;61362.88;;;-147.04;100.00
39075;BME280;24826;52.070;20.970;2023-04-10T03:52:34;61390.72;;;-147.04;100.00
39075;BME280;24826;52.070;20.970;2023-04-10T03:55:18;61396.66;;;-147.04;100.00
39075;BME280;24826;52.070;20.970;2023-04-10T03:58:03;61394.69;;;-147.04;100.00
39075;BME280;24826;52.070;20.970;2023-04-10T04:00:47;61404.63;;;-147.04;100.00
39075;BME280;24826;52.070;20.970;2023-04-10T04:03:32;61358.88;;;-147.04;100.00
39075;BME280;24826;52.070;20.970;2023-04-10T04:06:16;61392.69;;;-147.04;100.00
39075;BME280;24826;52.070;20.970;2023-04-10T04:09:01;61360.88;;;-147.04;100.00
39075;BME280;24826;52.070;20.970;2023-04-10T04:11:45;61388.72;;;-147.04;100.00
39075;BME280;24826;52.070;20.970;2023-04-10T04:14:30;61378.78;;;-147.04;100.00
39075;BME280;24826;52.070;20.970;2023-04-10T04:17:14;61388.72;;;-147.04;100.00
39075;BME280;24826;52.070;20.970;2023-04-10T04:19:59;61400.66;;;-147.04;100.00
39075;BME280;24826;52.070;20.970;2023-04-10T04:22:43;61424.50;;;-147.04;100.00
39075;BME280;24826;52.070;20.970;2023-04-10T04:25:27;61392.69;;;-147.04;100.00
39075;BME280;24826;52.070;20.970;2023-04-10T04:28:12;61492.13;;;-147.04;100.00
39075;BME280;24826;52.070;20.970;2023-04-10T04:30:59;61488.13;;;-147.04;100.00
39075;BME280;24826;52.070;20.970;2023-04-10T04:33:43;61398.66;;;-147.04;100.00
39075;BME280;24826;52.070;20.970;2023-04-10T04:36:27;61337.00;;;-147.04;100.00
39075;BME280;24826;52.070;20.970;2023-04-10T04:39:12;61388.72;;;-147.04;100.00
39075;BME280;24826;52.070;20.970;2023-04-10T04:41:56;61561.72;;;-147.04;100.00
39075;BME280;24826;52.070;20.970;2023-04-10T04:44:41;61424.50;;;-147.04;100.00
39075;BME280;24826;52.070;20.970;2023-04-10T04:47:25;61394.69;;;-147.04;100.00
39075;BME280;24826;52.070;20.970;2023-04-10T04:50:09;61519.94;;;-147.04;100.00
39075;BME280;24826;52.070;20.970;2023-04-10T04:52:54;61372.81;;;-147.04;100.00
39075;BME280;24826;52.070;20.970;2023-04-10T04:55:38;61581.59;;;-147.04;100.00
39075;BME280;24826;52.070;20.970;2023-04-10T04:58:23;61406.63;;;-147.04;100.00
39075;BME280;24826;52.070;20.970;2023-04-10T05:01:07;61446.38;;;-147.04;100.00
39075;BME280;24826;52.070;20.970;2023-04-10T05:03:52;61452.34;;;-147.04;100.00
39075;BME280;24826;52.070;20.970;2023-04-10T05:06:36;61414.56;;;-147.04;100.00
39075;BME280;24826;52.070;20.970;2023-04-10T05:09:21;61416.56;;;-147.04;100.00
39075;BME280;24826;52.070;20.970;2023-04-10T05:12:05;61422.53;;;-147.04;100.00
39075;BME280;24826;52.070;20.970;2023-04-10T05:14:49;61448.38;;;-147.04;100.00
39075;BME280;24826;52.070;20.970;2023-04-10T05:17:34;61476.22;;;-147.04;100.00
39075;BME280;24826;52.070;20.970;2023-04-10T05:20:18;61446.38;;;-147.04;100.00
39075;BME280;24826;52.070;20.970;2023-04-10T05:23:05;61466.25;;;-147.04;100.00
39075;BME280;24826;52.070;20.970;2023-04-10T05:25:50;61504.03;;;-147.04;100.00
39075;BME280;24826;52.070;20.970;2023-04-10T05:28:35;61531.88;;;-147.04;100.00
39075;BME280;24826;52.070;20.970;2023-04-10T05:31:19;61462.28;;;-147.04;100.00
39075;BME280;24826;52.070;20.970;2023-04-10T05:34:04;61476.22;;;-147.04;100.00
39075;BME280;24826;52.070;20.970;2023-04-10T05:36:48;61480.19;;;-147.04;100.00
39075;BME280;24826;52.070;20.970;2023-04-10T05:39:32;61482.19;;;-147.04;100.00
39075;BME280;24826;52.070;20.970;2023-04-10T05:42:17;61478.19;;;-147.04;100.00
39075;BME280;24826;52.070;20.970;2023-04-10T05:45:01;61492.13;;;-147.04;100.00
39075;BME280;24826;52.070;20.970;2023-04-10T05:47:46;61488.13;;;-147.04;100.00
39075;BME280;24826;52.070;20.970;2023-04-10T05:50:31;61517.97;;;-147.04;100.00
39075;BME280;24826;52.070;20.970;2023-04-10T05:53:18;61484.16;;;-147.04;100.00
39075;BME280;24826;52.070;20.970;2023-04-10T05:56:02;61508.03;;;-147.04;100.00
39075;BME280;24826;52.070;20.970;2023-04-10T05:58:47;61543.81;;;-147.04;100.00
39075;BME280;24826;52.070;20.970;2023-04-10T06:01:31;61486.16;;;-147.04;100.00
39075;BME280;24826;52.070;20.970;2023-04-10T06:04:15;61496.09;;;-147.04;100.00
39075;BME280;24826;52.070;20.970;2023-04-10T06:07:00;61531.88;;;-147.04;100.00
39075;BME280;24826;52.070;20.970;2023-04-10T06:09:44;61531.88;;;-147.04;100.00
39075;BME280;24826;52.070;20.970;2023-04-10T06:12:28;61543.81;;;-147.04;100.00
39075;BME280;24826;52.070;20.970;2023-04-10T06:15:13;61514.00;;;-147.04;100.00
39075;BME280;24826;52.070;20.970;2023-04-10T06:17:57;61571.66;;;-147.04;100.00
39075;BME280;24826;52.070;20.970;2023-04-10T06:20:42;61579.59;;;-147.04;100.00
39075;BME280;24826;52.070;20.970;2023-04-10T06:23:27;61569.66;;;-147.04;100.00
39075;BME280;24826;52.070;20.970;2023-04-10T06:26:12;61559.72;;;-147.04;100.00
39075;BME280;24826;52.070;20.970;2023-04-10T06:28:56;61593.53;;;-147.04;100.00
39075;BME280;24826;52.070;20.970;2023-04-10T06:31:41;61585.56;;;-147.04;100.00
39075;BME280;24826;52.070;20.970;2023-04-10T06:34:25;61615.41;;;-147.04;100.00
39075;BME280;24826;52.070;20.970;2023-04-10T06:37:10;61615.41;;;-147.04;100.00
39075;BME280;24826;52.070;20.970;2023-04-10T06:40:15;61623.34;;;-147.04;100.00
39075;BME280;24826;52.070;20.970;2023-04-10T06:43:00;61639.25;;;-147.04;100.00
39075;BME280;24826;52.070;20.970;2023-04-10T06:45:44;61647.22;;;-147.04;100.00
39075;BME280;24826;52.070;20.970;2023-04-10T06:48:29;61621.38;;;-147.04;100.00
39075;BME280;24826;52.070;20.970;2023-04-10T06:51:13;61631.31;;;-147.04;100.00
39075;BME280;24826;52.070;20.970;2023-04-10T06:53:58;61613.41;;;-147.04;100.00
39075;BME280;24826;52.070;20.970;2023-04-10T06:56:43;61661.13;;;-147.04;100.00
39075;BME280;24826;52.070;20.970;2023-04-10T06:59:27;61645.22;;;-147.04;100.00
39075;BME280;24826;52.070;20.970;2023-04-10T07:02:12;61637.28;;;-147.04;100.00
39075;BME280;24826;52.070;20.970;2023-04-10T07:04:57;61629.31;;;-147.04;100.00
39075;BME280;24826;52.070;20.970;2023-04-10T07:07:41;61655.16;;;-147.04;100.00
39075;BME280;24826;52.070;20.970;2023-04-10T07:10:26;61655.16;;;-147.04;100.00
39075;BME280;24826;52.070;20.970;2023-04-10T07:13:10;61643.25;;;-147.04;100.00
39075;BME280;24826;52.070;20.970;2023-04-10T07:15:55;61679.03;;;-147.04;100.00
39075;BME280;24826;52.070;20.970;2023-04-10T07:18:39;61671.09;;;-147.04;100.00
39075;BME280;24826;52.070;20.970;2023-04-10T07:21:24;61685.00;;;-147.04;100.00
39075;BME280;24826;52.070;20.970;2023-04-10T07:24:10;61716.81;;;-147.04;100.00
39075;BME280;24826;52.070;20.970;2023-04-10T07:26:55;61772.50;;;-147.04;100.00
39075;BME280;24826;52.070;20.970;2023-04-10T07:29:39;61722.78;;;-147.04;100.00
39075;BME280;24826;52.070;20.970;2023-04-10T07:32:24;61726.75;;;-147.04;100.00
39075;BME280;24826;52.070;20.970;2023-04-10T07:35:08;61724.78;;;-147.04;100.00
39075;BME280;24826;52.070;20.970;2023-04-10T07:37:53;61794.38;;;-147.04;100.00
39075;BME280;24826;52.070;20.970;2023-04-10T07:40:37;61744.66;;;-147.04;100.00
39075;BME280;24826;52.070;20.970;2023-04-10T07:43:22;61865.97;;;-147.04;100.00
39075;BME280;24826;52.070;20.970;2023-04-10T07:46:06;61758.59;;;-147.04;100.00
39075;BME280;24826;52.070;20.970;2023-04-10T07:48:51;61786.41;;;-147.04;100.00
39075;BME280;24826;52.070;20.970;2023-04-10T07:51:35;61818.25;;;-147.04;100.00
39075;BME280;24826;52.070;20.970;2023-04-10T07:54:20;61850.06;;;-147.04;100.00
39075;BME280;24826;52.070;20.970;2023-04-10T07:57:04;61860.00;;;-147.04;100.00
39075;BME280;24826;52.070;20.970;2023-04-10T07:59:48;61921.66;;;-147.04;98.47
39075;BME280;24826;52.070;20.970;2023-04-10T08:02:33;62104.63;;;-147.04;93.67
39075;BME280;24826;52.070;20.970;2023-04-10T08:05:17;62009.16;;;-147.04;91.57
39075;BME280;24826;52.070;20.970;2023-04-10T08:08:02;62056.88;;;-147.04;87.68
39075;BME280;24826;52.070;20.970;2023-04-10T08:10:47;62158.31;;;-147.04;84.36
39075;BME280;24826;52.070;20.970;2023-04-10T08:13:31;62245.81;;;-147.04;78.58
39075;BME280;24826;52.070;20.970;2023-04-10T08:16:19;62269.69;;;-147.04;72.21
39075;BME280;24826;52.070;20.970;2023-04-10T08:19:03;62375.09;;;-147.04;65.77
39075;BME280;24826;52.070;20.970;2023-04-10T08:21:48;62518.31;;;-147.04;62.33
39075;BME280;24826;52.070;20.970;2023-04-10T08:24:32;62665.50;;;-147.04;58.40
39075;BME280;24826;52.070;20.970;2023-04-10T08:27:17;62661.50;;;-147.04;55.36
39075;BME280;24826;52.070;20.970;2023-04-10T08:30:01;62731.13;;;-147.04;53.12
39075;BME280;24826;52.070;20.970;2023-04-10T08:32:46;62725.16;;;-147.04;52.10
39075;BME280;24826;52.070;20.970;2023-04-10T08:35:30;62691.34;;;-147.04;51.37
39075;BME280;24826;52.070;20.970;2023-04-10T08:38:14;62450.69;;;-147.04;53.34
39075;BME280;24826;52.070;20.970;2023-04-10T08:40:59;62331.34;;;-147.04;55.35
39075;BME280;24826;52.070;20.970;2023-04-10T08:43:43;62353.22;;;-147.04;57.51
39075;BME280;24826;52.070;20.970;2023-04-10T08:46:31;62255.75;;;-147.04;57.73
39075;BME280;24826;52.070;20.970;2023-04-10T08:49:43;62196.09;;;-147.04;60.64
39075;BME280;24826;52.070;20.970;2023-04-10T08:52:33;62128.47;;;-147.04;61.62
39075;BME280;24826;52.070;20.970;2023-04-10T08:55:18;62120.53;;;-147.04;62.61
39075;BME280;24826;52.070;20.970;2023-04-10T08:58:03;62120.53;;;-147.04;62.59
39075;BME280;24826;52.070;20.970;2023-04-10T09:00:48;62134.44;;;-147.04;61.77
39075;BME280;24826;52.070;20.970;2023-04-10T09:03:34;62118.53;;;-147.04;63.81
39075;BME280;24826;52.070;20.970;2023-04-10T09:06:18;62174.22;;;-147.04;61.80
39075;BME280;24826;52.070;20.970;2023-04-10T09:09:07;62190.13;;;-147.04;61.79
39075;BME280;24826;52.070;20.970;2023-04-10T09:14:41;62196.09;;;-147.04;59.90
39075;BME280;24826;52.070;20.970;2023-04-10T09:17:25;62279.63;;;-147.04;59.41
39075;BME280;24826;52.070;20.970;2023-04-10T09:20:20;62357.19;;;-147.04;59.70
39075;BME280;24826;52.070;20.970;2023-04-10T09:23:20;62309.47;;;-147.04;60.32
39075;BME280;24826;52.070;20.970;2023-04-10T09:26:21;62263.72;;;-147.04;60.86
39075;BME280;24826;52.070;20.970;2023-04-10T09:29:06;62223.94;;;-147.04;60.30
39075;BME280;24826;52.070;20.970;2023-04-10T09:31:51;62229.91;;;-147.04;58.53
39075;BME280;24826;52.070;20.970;2023-04-10T09:34:54;62180.19;;;-147.04;57.61
39075;BME280;24826;52.070;20.970;2023-04-10T09:37:41;62144.38;;;-147.04;57.03
39075;BME280;24826;52.070;20.970;2023-04-10T09:40:27;62148.38;;;-147.04;57.80
39075;BME280;24826;52.070;20.970;2023-04-10T09:43:29;62144.38;;;-147.04;57.19
39075;BME280;24826;52.070;20.970;2023-04-10T09:46:25;62227.91;;;-147.04;58.14
39075;BME280;24826;52.070;20.970;2023-04-10T09:49:09;62090.69;;;-147.04;56.67
39075;BME280;24826;52.070;20.970;2023-04-10T09:51:54;62086.72;;;-147.04;57.09
39075;BME280;24826;52.070;20.970;2023-04-10T09:54:38;62037.00;;;-147.04;56.52
39075;BME280;24826;52.070;20.970;2023-04-10T09:57:25;62040.97;;;-147.04;55.64
39075;BME280;24826;52.070;20.970;2023-04-10T10:00:10;62021.09;;;-147.04;56.05
39075;BME280;24826;52.070;20.970;2023-04-10T10:02:58;62052.91;;;-147.04;54.89
39075;BME280;24826;52.070;20.970;2023-04-10T10:05:44;62029.03;;;-147.04;54.58
39075;BME280;24826;52.070;20.970;2023-04-10T10:08:31;62056.88;;;-147.04;54.82
39075;BME280;24826;52.070;20.970;2023-04-10T10:11:22;62038.97;;;-147.04;52.26
39075;BME280;24826;52.070;20.970;2023-04-10T10:14:28;62056.88;;;-147.04;52.17
39075;BME280;24826;52.070;20.970;2023-04-10T10:17:14;62019.09;;;-147.04;52.01
39075;BME280;24826;52.070;20.970;2023-04-10T10:20:08;62052.91;;;-147.04;52.15
39075;BME280;24826;52.070;20.970;2023-04-10T10:22:54;62092.69;;;-147.04;51.83
39075;BME280;24826;52.070;20.970;2023-04-10T10:25:40;61993.25;;;-147.04;51.46
39075;BME280;24826;52.070;20.970;2023-04-10T10:28:26;62088.69;;;-147.04;52.53
39075;BME280;24826;52.070;20.970;2023-04-10T10:31:14;62152.34;;;-147.04;51.57
39075;BME280;24826;52.070;20.970;2023-04-10T10:34:00;62072.78;;;-147.04;51.49
39075;BME280;24826;52.070;20.970;2023-04-10T10:36:53;62108.59;;;-147.04;50.50
39075;BME280;24826;52.070;20.970;2023-04-10T10:39:46;62082.75;;;-147.04;50.72
39075;BME280;24826;52.070;20.970;2023-04-10T10:42:52;62086.72;;;-147.04;51.04
39075;BME280;24826;52.070;20.970;2023-04-10T10:45:45;62096.66;;;-147.04;50.16
39075;BME280;24826;52.070;20.970;2023-04-10T10:48:31;62102.63;;;-147.04;49.14
39075;BME280;24826;52.070;20.970;2023-04-10T10:51:16;62118.53;;;-147.04;49.62
39075;BME280;24826;52.070;20.970;2023-04-10T10:54:00;62104.63;;;-147.04;49.45
39075;BME280;24826;52.070;20.970;2023-04-10T10:56:45;62104.63;;;-147.04;48.45
39075;BME280;24826;52.070;20.970;2023-04-10T11:02:29;62158.31;;;-147.04;47.14
39075;BME280;24826;52.070;20.970;2023-04-10T11:05:52;62156.31;;;-147.04;46.17
39075;BME280;24826;52.070;20.970;2023-04-10T11:08:42;62176.22;;;-147.04;47.06
39075;BME280;24826;52.070;20.970;2023-04-10T11:11:28;62184.16;;;-147.04;46.76
39075;BME280;24826;52.070;20.970;2023-04-10T11:14:13;62343.28;;;-147.04;46.20
39075;BME280;24826;52.070;20.970;2023-04-10T11:17:01;62160.31;;;-147.04;44.53
39075;BME280;24826;52.070;20.970;2023-04-10T11:20:03;62198.09;;;-147.04;44.89
39075;BME280;24826;52.070;20.970;2023-04-10T11:23:11;62040.97;;;-147.04;46.23
39075;BME280;24826;52.070;20.970;2023-04-10T11:25:55;62005.19;;;-147.04;45.55
39075;BME280;24826;52.070;20.970;2023-04-10T11:28:40;61973.34;;;-147.04;46.50
39075;BME280;24826;52.070;20.970;2023-04-10T11:31:25;62017.09;;;-147.04;47.38
39075;BME280;24826;52.070;20.970;2023-04-10T11:34:10;62074.78;;;-147.04;47.38
39075;BME280;24826;52.070;20.970;2023-04-10T11:36:55;62112.56;;;-147.04;45.84
39075;BME280;24826;52.070;20.970;2023-04-10T11:39:39;62074.78;;;-147.04;46.65
39075;BME280;24826;52.070;20.970;2023-04-10T11:42:24;62092.69;;;-147.04;46.40
39075;BME280;24826;52.070;20.970;2023-04-10T11:45:27;62106.59;;;-147.04;47.38
39075;BME280;24826;52.070;20.970;2023-04-10T11:48:11;62124.50;;;-147.04;46.15
39075;BME280;24826;52.070;20.970;2023-04-10T11:50:58;62168.25;;;-147.04;44.82
39075;BME280;24826;52.070;20.970;2023-04-10T11:53:49;62168.25;;;-147.04;45.23
39075;BME280;24826;52.070;20.970;2023-04-10T11:56:34;62168.25;;;-147.04;45.41
39075;BME280;24826;52.070;20.970;2023-04-10T11:59:19;62210.03;;;-147.04;44.91
39075;BME280;24826;52.070;20.970;2023-04-10T12:02:10;62204.06;;;-147.04;44.69
39075;BME280;24826;52.070;20.970;2023-04-10T12:04:57;62160.31;;;-147.04;44.97
39075;BME280;24826;52.070;20.970;2023-04-10T12:07:42;62235.88;;;-147.04;44.33
39075;BME280;24826;52.070;20.970;2023-04-10T12:10:26;62168.25;;;-147.04;43.75
39075;BME280;24826;52.070;20.970;2023-04-10T12:13:26;62180.19;;;-147.04;43.47
39075;BME280;24826;52.070;20.970;2023-04-10T12:16:11;62164.28;;;-147.04;44.30
39075;BME280;24826;52.070;20.970;2023-04-10T12:18:55;62204.06;;;-147.04;44.39
39075;BME280;24826;52.070;20.970;2023-04-10T12:21:40;62192.13;;;-147.04;44.33
39075;BME280;24826;52.070;20.970;2023-04-10T12:24:45;62206.03;;;-147.04;43.88
39075;BME280;24826;52.070;20.970;2023-04-10T12:27:30;62210.03;;;-147.04;43.95
39075;BME280;24826;52.070;20.970;2023-04-10T12:30:15;62176.22;;;-147.04;44.16
39075;BME280;24826;52.070;20.970;2023-04-10T12:32:59;62196.09;;;-147.04;43.85
39075;BME280;24826;52.070;20.970;2023-04-10T12:35:49;62152.34;;;-147.04;43.43
39075;BME280;24826;52.070;20.970;2023-04-10T12:41:22;62128.47;;;-147.04;43.99
39075;BME280;24826;52.070;20.970;2023-04-10T12:44:13;62070.81;;;-147.04;45.37
39075;BME280;24826;52.070;20.970;2023-04-10T12:47:01;62070.81;;;-147.04;45.73
39075;BME280;24826;52.070;20.970;2023-04-10T12:50:11;62056.88;;;-147.04;45.43
39075;BME280;24826;52.070;20.970;2023-04-10T12:53:04;61991.25;;;-147.04;45.09
39075;BME280;24826;52.070;20.970;2023-04-10T12:56:01;61937.56;;;-147.04;44.68
39075;BME280;24826;52.070;20.970;2023-04-10T12:58:46;61889.84;;;-147.04;45.03
39075;BME280;24826;52.070;20.970;2023-04-10T13:01:30;61939.53;;;-147.04;45.49
39075;BME280;24826;52.070;20.970;2023-04-10T13:04:15;61877.91;;;-147.04;45.47
39075;BME280;24826;52.070;20.970;2023-04-10T13:07:00;61895.78;;;-147.04;46.42
39075;BME280;24826;52.070;20.970;2023-04-10T13:09:44;61885.84;;;-147.04;46.75
39075;BME280;24826;52.070;20.970;2023-04-10T13:12:29;61867.97;;;-147.04;46.95
39075;BME280;24826;52.070;20.970;2023-04-10T13:15:13;61905.75;;;-147.04;47.36
39075;BME280;24826;52.070;20.970;2023-04-10T13:17:59;61885.84;;;-147.04;46.24
39075;BME280;24826;52.070;20.970;2023-04-10T13:20:44;61921.66;;;-147.04;46.53
39075;BME280;24826;52.070;20.970;2023-04-10T13:23:28;61901.75;;;-147.04;47.40
39075;BME280;24826;52.070;20.970;2023-04-10T13:26:13;61939.53;;;-147.04;46.92
39075;BME280;24826;52.070;20.970;2023-04-10T13:28:58;61975.34;;;-147.04;47.60
39075;BME280;24826;52.070;20.970;2023-04-10T13:31:43;61889.84;;;-147.04;48.22
39075;BME280;24826;52.070;20.970;2023-04-10T13:34:27;61909.72;;;-147.04;47.44
39075;BME280;24826;52.070;20.970;2023-04-10T13:37:12;61873.91;;;-147.04;48.13
39075;BME280;24826;52.070;20.970;2023-04-10T13:39:56;61909.72;;;-147.04;48.83
39075;BME280;24826;52.070;20.970;2023-04-10T13:42:41;61925.63;;;-147.04;47.43
39075;BME280;24826;52.070;20.970;2023-04-10T13:45:25;61965.41;;;-147.04;46.69
39075;BME280;24826;52.070;20.970;2023-04-10T13:48:10;61981.31;;;-147.04;46.12
39075;BME280;24826;52.070;20.970;2023-04-10T13:50:54;61995.22;;;-147.04;45.26
39075;BME280;24826;52.070;20.970;2023-04-10T13:53:39;62005.19;;;-147.04;45.66
39075;BME280;24826;52.070;20.970;2023-04-10T13:56:23;61957.44;;;-147.04;47.25
39075;BME280;24826;52.070;20.970;2023-04-10T13:59:08;61965.41;;;-147.04;47.63
39075;BME280;24826;52.070;20.970;2023-04-10T14:01:53;61969.38;;;-147.04;48.25
39075;BME280;24826;52.070;20.970;2023-04-10T14:04:37;61921.66;;;-147.04;49.67
39075;BME280;24826;52.070;20.970;2023-04-10T14:07:22;61893.81;;;-147.04;51.09
39075;BME280;24826;52.070;20.970;2023-04-10T14:10:06;61881.88;;;-147.04;52.24
39075;BME280;24826;52.070;20.970;2023-04-10T14:12:51;61873.91;;;-147.04;52.94
39075;BME280;24826;52.070;20.970;2023-04-10T14:15:35;61844.09;;;-147.04;53.39
39075;BME280;24826;52.070;20.970;2023-04-10T14:18:20;61836.13;;;-147.04;53.83
39075;BME280;24826;52.070;20.970;2023-04-10T14:21:05;61778.47;;;-147.04;53.25
39075;BME280;24826;52.070;20.970;2023-04-10T14:23:49;61754.59;;;-147.04;51.93
39075;BME280;24826;52.070;20.970;2023-04-10T14:26:34;61752.63;;;-147.04;53.00
39075;BME280;24826;52.070;20.970;2023-04-10T14:29:18;61768.53;;;-147.04;53.86